createdAt,value
2022-11-04T00:02:59.480Z,10.67
2022-11-04T00:08:20.359Z,10.67
2022-11-04T00:13:25.193Z,10.80
2022-11-04T00:18:28.656Z,10.79
2022-11-04T00:23:49.606Z,10.91
2022-11-04T00:28:54.373Z,10.88
2022-11-04T00:33:59.831Z,10.94
2022-11-04T00:39:03.234Z,10.92
2022-11-04T00:44:08.197Z,10.92
2022-11-04T00:49:11.521Z,11.25
2022-11-04T00:54:15.149Z,11.54
2022-11-04T00:59:20.239Z,11.66
2022-11-04T01:04:23.674Z,11.70
2022-11-04T01:09:27.244Z,11.60
2022-11-04T01:14:32.349Z,11.37
2022-11-04T01:19:36.030Z,11.36
2022-11-04T01:24:39.503Z,11.27
2022-11-04T01:29:44.468Z,11.30
2022-11-04T01:34:48.319Z,11.27
2022-11-04T01:39:51.794Z,11.28
2022-11-04T01:44:59.688Z,11.30
2022-11-04T01:50:08.535Z,11.23
2022-11-04T01:55:15.442Z,11.07
2022-11-04T02:00:20.657Z,11.06
2022-11-04T02:05:24.517Z,10.74
2022-11-04T02:10:30.326Z,10.82
2022-11-04T02:15:46.424Z,11.09
2022-11-04T02:21:07.438Z,11.14
2022-11-04T02:26:43.187Z,11.03
2022-11-04T02:31:55.328Z,11.16
2022-11-04T02:37:07.843Z,11.12
2022-11-04T02:42:18.649Z,11.17
2022-11-04T02:47:27.225Z,11.10
2022-11-04T02:52:34.893Z,11.12
2022-11-04T02:57:41.916Z,11.05
2022-11-04T03:02:52.273Z,11.00
2022-11-04T03:07:59.176Z,10.86
2022-11-04T03:13:07.198Z,10.92
2022-11-04T03:18:19.473Z,11.07
2022-11-04T03:23:23.273Z,10.91
2022-11-04T03:28:36.371Z,10.95
2022-11-04T03:33:46.947Z,10.81
2022-11-04T03:38:51.460Z,10.98
2022-11-04T03:43:54.866Z,10.77
2022-11-04T03:49:00.851Z,10.93
2022-11-04T03:54:04.772Z,10.83
2022-11-04T03:59:23.995Z,10.81
2022-11-04T04:04:31.655Z,10.45
2022-11-04T04:09:40.867Z,10.69
2022-11-04T04:14:48.225Z,10.54
2022-11-04T04:19:57.376Z,10.69
2022-11-04T04:25:22.273Z,10.27
2022-11-04T04:30:25.986Z,10.22
2022-11-04T04:35:43.080Z,10.49
2022-11-04T04:41:08.796Z,10.49
2022-11-04T04:46:13.380Z,10.48
2022-11-04T04:51:18.320Z,10.51
2022-11-04T04:56:22.046Z,10.47
2022-11-04T05:01:25.817Z,10.34
2022-11-04T05:06:30.819Z,10.38
2022-11-04T05:11:34.461Z,10.39
2022-11-04T05:16:40.774Z,10.27
2022-11-04T05:21:45.851Z,10.24
2022-11-04T05:26:49.541Z,10.13
2022-11-04T05:31:53.804Z,10.03
2022-11-04T05:37:00.474Z,10.04
2022-11-04T05:42:06.454Z,10.18
2022-11-04T05:47:10.636Z,9.81
2022-11-04T05:52:15.768Z,10.08
2022-11-04T05:57:19.398Z,9.68
2022-11-04T06:02:23.491Z,9.85
2022-11-04T06:07:28.597Z,9.89
2022-11-04T06:12:32.307Z,9.61
2022-11-04T06:17:36.197Z,9.85
2022-11-04T06:22:41.056Z,10.08
2022-11-04T06:27:44.608Z,10.04
2022-11-04T06:32:48.307Z,9.73
2022-11-04T06:37:53.436Z,9.96
2022-11-04T06:42:56.870Z,10.00
2022-11-04T06:48:00.264Z,10.04
2022-11-04T06:53:05.807Z,9.89
2022-11-04T06:58:09.892Z,9.89
2022-11-04T07:03:13.445Z,9.97
2022-11-04T07:08:18.947Z,9.87
2022-11-04T07:13:22.480Z,9.71
2022-11-04T07:18:25.881Z,9.98
2022-11-04T07:23:30.789Z,10.00
2022-11-04T07:28:34.425Z,9.84
2022-11-04T07:33:37.987Z,9.69
2022-11-04T07:38:42.981Z,9.63
2022-11-04T07:43:50.402Z,9.78
2022-11-04T07:48:53.840Z,9.84
2022-11-04T07:53:59.431Z,9.80
2022-11-04T07:59:02.997Z,9.51
2022-11-04T08:04:07.240Z,9.57
2022-11-04T08:09:12.258Z,9.84
2022-11-04T08:14:15.779Z,9.84
2022-11-04T08:19:19.268Z,9.96
2022-11-04T08:24:25.247Z,10.09
2022-11-04T08:29:28.672Z,9.94
2022-11-04T08:34:32.230Z,9.93
2022-11-04T08:39:37.198Z,10.32
2022-11-04T08:44:40.792Z,10.26
2022-11-04T08:49:44.458Z,10.83
2022-11-04T08:54:52.282Z,10.80
2022-11-04T08:59:59.727Z,10.76
2022-11-04T09:05:03.418Z,11.05
2022-11-04T09:10:09.028Z,10.96
2022-11-04T09:15:13.390Z,10.89
2022-11-04T09:20:17.779Z,10.87
2022-11-04T09:25:22.843Z,10.88
2022-11-04T09:30:26.697Z,10.96
2022-11-04T09:35:30.579Z,10.92
2022-11-04T09:40:37.874Z,10.91
2022-11-04T09:45:43.955Z,10.90
2022-11-04T09:50:51.925Z,10.86
2022-11-04T09:56:01.064Z,11.02
2022-11-04T10:01:13.837Z,10.80
2022-11-04T10:06:30.795Z,11.11
2022-11-04T10:11:42.426Z,11.14
2022-11-04T10:17:04.634Z,11.21
2022-11-04T10:22:16.909Z,11.18
2022-11-04T10:27:26.712Z,10.94
2022-11-04T10:32:36.395Z,11.28
2022-11-04T10:37:40.271Z,11.20
2022-11-04T10:42:45.256Z,11.41
2022-11-04T10:47:56.620Z,11.28
2022-11-04T10:53:13.676Z,11.48
2022-11-04T10:58:24.073Z,11.49
2022-11-04T11:03:32.680Z,10.67
2022-11-04T11:08:38.306Z,11.31
2022-11-04T11:13:45.600Z,11.33
2022-11-04T11:19:14.090Z,11.90
2022-11-04T11:24:21.805Z,12.04
2022-11-04T11:29:29.483Z,12.24
2022-11-04T11:34:39.493Z,12.05
2022-11-04T11:39:45.251Z,12.15
2022-11-04T11:44:54.474Z,12.27
2022-11-04T11:50:07.453Z,12.89
2022-11-04T11:55:17.344Z,13.00
2022-11-04T12:11:16.798Z,13.44
2022-11-04T12:16:34.949Z,13.32
2022-11-04T12:21:44.516Z,13.68
2022-11-04T12:26:56.699Z,13.65
2022-11-04T12:32:12.444Z,12.62
2022-11-04T12:37:28.024Z,12.76
2022-11-04T12:42:44.045Z,13.20
2022-11-04T12:47:50.186Z,13.32
2022-11-04T12:53:11.944Z,12.65
2022-11-04T12:58:32.759Z,12.48
2022-11-04T13:03:46.294Z,12.63
2022-11-04T13:08:52.731Z,12.82
2022-11-04T13:14:03.495Z,12.92
2022-11-04T13:19:17.559Z,12.93
2022-11-04T13:24:30.362Z,12.96
2022-11-04T13:29:37.009Z,12.75
2022-11-04T13:34:52.776Z,12.77
2022-11-04T13:40:00.401Z,12.81
2022-11-04T13:45:14.331Z,12.76
2022-11-04T13:50:35.472Z,12.74
2022-11-04T13:55:50.643Z,12.61
2022-11-04T14:01:14.843Z,12.47
2022-11-04T14:06:53.510Z,12.66
2022-11-04T14:12:20.610Z,12.47
2022-11-04T14:18:01.544Z,12.47
2022-11-04T14:23:08.940Z,12.28
2022-11-04T14:28:26.989Z,12.37
2022-11-04T14:33:35.663Z,12.24
2022-11-04T14:38:42.065Z,12.03
2022-11-04T14:43:47.746Z,11.56
2022-11-04T14:48:54.606Z,11.48
2022-11-04T14:54:07.098Z,11.33
2022-11-04T14:59:23.036Z,11.20
2022-11-04T15:04:29.550Z,11.11
2022-11-04T15:09:36.506Z,10.96
2022-11-04T15:14:40.497Z,10.63
2022-11-04T15:19:44.186Z,10.55
2022-11-04T15:24:50.621Z,10.78
2022-11-04T15:29:55.253Z,10.53
2022-11-04T15:34:59.601Z,10.13
2022-11-04T15:40:07.383Z,9.88
2022-11-04T15:45:29.498Z,10.04
2022-11-04T15:50:34.870Z,9.75
2022-11-04T15:55:41.012Z,9.53
2022-11-04T16:00:53.002Z,9.47
2022-11-04T16:06:05.025Z,9.30
2022-11-04T16:11:19.319Z,9.06
2022-11-04T16:16:25.789Z,9.10
2022-11-04T16:21:30.890Z,8.78
2022-11-04T16:26:40.076Z,8.91
2022-11-04T16:31:43.637Z,8.27
2022-11-04T16:36:47.188Z,8.51
2022-11-04T16:41:52.103Z,8.92
2022-11-04T16:46:57.167Z,8.93
2022-11-04T16:52:03.485Z,8.65
2022-11-04T16:57:12.009Z,8.63
2022-11-04T17:02:22.355Z,8.48
2022-11-04T17:07:40.515Z,8.54
2022-11-04T17:12:50.883Z,8.31
2022-11-04T17:17:54.382Z,7.84
2022-11-04T17:22:58.460Z,8.36
2022-11-04T17:28:04.193Z,8.58
2022-11-04T17:33:08.824Z,8.32
2022-11-04T17:38:13.141Z,8.50
2022-11-04T17:43:35.412Z,8.59
2022-11-04T17:48:39.115Z,8.49
2022-11-04T17:53:42.695Z,8.35
2022-11-04T17:58:50.502Z,8.41
2022-11-04T18:03:54.833Z,8.41
2022-11-04T18:08:59.153Z,8.43
2022-11-04T18:14:03.965Z,8.28
2022-11-04T18:19:07.523Z,8.29
2022-11-04T18:24:11.323Z,8.26
2022-11-04T18:29:17.438Z,8.03
2022-11-04T18:34:21.373Z,8.01
2022-11-04T18:39:25.752Z,8.09
2022-11-04T18:44:31.109Z,7.77
2022-11-04T18:49:34.727Z,7.71
2022-11-04T18:54:38.493Z,7.64
2022-11-04T18:59:43.408Z,7.53
2022-11-04T19:04:46.852Z,7.41
2022-11-04T19:09:50.351Z,7.27
2022-11-04T19:14:55.178Z,7.27
2022-11-04T19:19:58.614Z,7.26
2022-11-04T19:25:02.185Z,7.08
2022-11-04T19:30:08.327Z,6.95
2022-11-04T19:35:11.871Z,7.04
2022-11-04T19:40:15.546Z,7.05
2022-11-04T19:45:20.636Z,7.01
2022-11-04T19:50:24.134Z,7.09
2022-11-04T19:55:27.586Z,6.99
2022-11-04T20:00:33.870Z,6.96
2022-11-04T20:05:39.248Z,6.97
2022-11-04T20:10:44.468Z,7.03
2022-11-04T20:15:49.586Z,6.68
2022-11-04T20:20:53.337Z,6.61
2022-11-04T20:25:56.988Z,6.72
2022-11-04T20:31:01.864Z,6.78
2022-11-04T20:36:05.679Z,6.71
2022-11-04T20:41:11.969Z,6.83
2022-11-04T20:46:19.577Z,6.68
2022-11-04T20:51:28.573Z,6.95
2022-11-04T20:56:33.601Z,7.12
2022-11-04T21:01:40.713Z,7.10
2022-11-04T21:06:44.347Z,7.37
2022-11-04T21:11:48.369Z,7.41
2022-11-04T21:16:53.632Z,7.32
2022-11-04T21:21:57.752Z,7.47
2022-11-04T21:27:01.984Z,7.50
2022-11-04T21:32:07.566Z,7.55
2022-11-04T21:37:11.242Z,7.46
2022-11-04T21:42:14.806Z,7.59
2022-11-04T21:47:19.979Z,7.65
2022-11-04T21:52:23.750Z,7.65
2022-11-04T21:57:27.387Z,7.59
2022-11-04T22:02:32.416Z,7.72
2022-11-04T22:07:50.008Z,7.74
2022-11-04T22:12:53.444Z,7.71
2022-11-04T22:17:58.168Z,7.85
2022-11-04T22:23:01.547Z,7.80
2022-11-04T22:28:05.187Z,7.61
2022-11-04T22:33:10.570Z,7.61
2022-11-04T22:38:14.323Z,7.68
2022-11-04T22:43:17.796Z,7.85
2022-11-04T22:48:23.268Z,7.97
2022-11-04T22:53:27.062Z,7.98
2022-11-04T22:58:32.141Z,8.06
2022-11-04T23:03:36.918Z,8.01
2022-11-04T23:08:42.390Z,7.93
2022-11-04T23:14:08.327Z,8.05
2022-11-04T23:19:13.235Z,8.15
2022-11-04T23:24:33.961Z,8.03
2022-11-04T23:29:55.102Z,8.12
2022-11-04T23:35:17.310Z,8.17
2022-11-04T23:40:20.679Z,8.15
2022-11-04T23:45:42.190Z,8.17
2022-11-04T23:51:04.174Z,8.20
2022-11-04T23:56:29.206Z,8.33
